createdAt,value
2023-01-06T00:02:18.432Z,57.54
2023-01-06T00:07:20.967Z,56.92
2023-01-06T00:12:23.345Z,56.29
2023-01-06T00:17:25.629Z,56.43
2023-01-06T00:22:27.950Z,55.31
2023-01-06T00:27:32.052Z,55.56
2023-01-06T00:32:34.485Z,54.88
2023-01-06T00:37:36.827Z,54.25
2023-01-06T00:42:38.958Z,53.73
2023-01-06T00:47:41.413Z,53.81
2023-01-06T00:52:43.706Z,53.38
2023-01-06T00:57:45.901Z,53.51
2023-01-06T01:02:48.941Z,52.89
2023-01-06T01:07:51.258Z,52.46
2023-01-06T01:12:53.613Z,52.13
2023-01-06T01:17:55.821Z,52.16
2023-01-06T01:22:58.141Z,51.67
2023-01-06T01:28:00.400Z,52.59
2023-01-06T01:33:02.637Z,53.09
2023-01-06T01:38:05.095Z,54.24
2023-01-06T01:43:12.394Z,55.01
2023-01-06T01:48:35.921Z,55.95
2023-01-06T01:53:50.175Z,56.78
2023-01-06T01:59:03.733Z,57.28
2023-01-06T02:04:06.599Z,57.17
2023-01-06T02:09:26.616Z,58.43
2023-01-06T02:14:29.397Z,58.96
2023-01-06T02:20:07.297Z,60.33
2023-01-06T02:25:28.708Z,61.30
2023-01-06T02:31:25.157Z,62.78
2023-01-06T02:36:34.498Z,64.44
2023-01-06T02:41:47.035Z,65.21
2023-01-06T02:47:05.015Z,65.52
2023-01-06T02:52:19.714Z,66.22
2023-01-06T02:57:36.880Z,66.78
2023-01-06T03:02:42.934Z,66.85
2023-01-06T03:07:47.040Z,66.83
2023-01-06T03:12:55.951Z,67.03
2023-01-06T03:17:59.128Z,66.16
2023-01-06T03:23:01.708Z,66.36
2023-01-06T03:28:04.129Z,66.12
2023-01-06T03:33:18.152Z,66.96
2023-01-06T03:39:11.497Z,67.75
2023-01-06T03:44:26.319Z,67.70
2023-01-06T03:49:35.578Z,68.51
2023-01-06T03:54:45.866Z,68.71
2023-01-06T03:59:55.791Z,69.87
2023-01-06T04:05:10.549Z,70.26
2023-01-06T04:10:15.105Z,71.55
2023-01-06T04:15:23.373Z,71.48
2023-01-06T04:20:30.193Z,71.63
2023-01-06T04:25:44.183Z,71.72
2023-01-06T04:30:58.884Z,72.16
2023-01-06T04:36:02.598Z,72.14
2023-01-06T04:41:05.338Z,71.91
2023-01-06T04:46:08.183Z,71.83
2023-01-06T04:51:11.730Z,72.03
2023-01-06T04:56:14.413Z,72.95
2023-01-06T05:01:16.837Z,72.81
2023-01-06T05:06:20.567Z,73.08
2023-01-06T05:11:25.393Z,73.13
2023-01-06T05:16:33.202Z,73.08
2023-01-06T05:21:35.622Z,73.49
2023-01-06T05:26:37.909Z,72.78
2023-01-06T05:31:40.234Z,72.71
2023-01-06T05:36:42.609Z,72.93
2023-01-06T05:41:45.510Z,73.38
2023-01-06T05:46:47.999Z,73.56
2023-01-06T05:51:50.373Z,73.22
2023-01-06T05:56:52.713Z,73.16
2023-01-06T06:01:54.983Z,73.23
2023-01-06T06:06:57.334Z,72.39
2023-01-06T06:11:59.658Z,71.77
2023-01-06T06:17:02.373Z,71.36
2023-01-06T06:22:04.771Z,71.05
2023-01-06T06:27:07.026Z,70.17
2023-01-06T06:32:09.471Z,69.35
2023-01-06T06:37:22.479Z,68.63
2023-01-06T06:42:26.614Z,67.15
2023-01-06T06:47:28.995Z,66.46
2023-01-06T06:52:31.190Z,66.09
2023-01-06T06:57:33.390Z,64.41
2023-01-06T07:02:35.939Z,63.23
2023-01-06T07:07:38.616Z,62.88
2023-01-06T07:13:13.598Z,61.08
2023-01-06T07:18:15.894Z,60.30
2023-01-06T07:23:18.226Z,59.29
2023-01-06T07:28:27.227Z,58.45
2023-01-06T07:33:30.009Z,56.63
2023-01-06T07:38:32.914Z,49.15
2023-01-06T07:43:35.419Z,37.92
2023-01-06T07:48:37.984Z,33.79
2023-01-06T07:53:43.372Z,29.72
2023-01-06T07:58:45.905Z,30.53
2023-01-06T08:03:48.164Z,30.75
2023-01-06T08:08:50.492Z,31.48
2023-01-06T08:13:52.888Z,32.01
2023-01-06T08:18:55.259Z,31.85
2023-01-06T08:23:57.711Z,30.14
2023-01-06T08:29:00.085Z,32.22
2023-01-06T08:34:02.390Z,32.70
2023-01-06T08:39:04.874Z,32.85
2023-01-06T08:44:08.155Z,32.68
2023-01-06T08:49:10.554Z,34.47
2023-01-06T08:54:14.888Z,33.65
2023-01-06T08:59:18.362Z,35.63
2023-01-06T09:04:20.886Z,33.65
2023-01-06T09:09:23.458Z,34.14
2023-01-06T09:14:25.960Z,33.69
2023-01-06T09:19:28.426Z,33.31
2023-01-06T09:24:30.797Z,31.52
2023-01-06T09:29:34.789Z,30.98
2023-01-06T09:34:37.195Z,30.55
2023-01-06T09:39:40.179Z,31.38
2023-01-06T09:44:59.200Z,31.45
2023-01-06T09:50:17.643Z,33.59
2023-01-06T09:55:29.020Z,32.67
2023-01-06T10:00:40.230Z,31.61
2023-01-06T10:06:07.816Z,33.75
2023-01-06T10:11:24.416Z,32.18
2023-01-06T10:16:46.579Z,33.38
2023-01-06T10:27:38.157Z,32.97
2023-01-06T10:32:42.841Z,32.53
2023-01-06T10:37:49.178Z,33.21
2023-01-06T10:43:04.115Z,31.78
2023-01-06T10:48:11.465Z,31.54
2023-01-06T10:53:15.879Z,32.77
2023-01-06T10:58:36.446Z,34.18
2023-01-06T11:03:43.393Z,35.64
2023-01-06T11:08:48.474Z,35.11
2023-01-06T11:13:53.738Z,37.07
2023-01-06T11:26:14.712Z,36.99
2023-01-06T11:31:22.251Z,37.55
2023-01-06T11:36:29.204Z,37.79
2023-01-06T11:41:36.852Z,38.57
2023-01-06T11:46:46.503Z,38.60
2023-01-06T11:51:50.055Z,38.11
2023-01-06T11:57:00.525Z,39.00
2023-01-06T12:02:02.911Z,38.80
2023-01-06T12:07:38.438Z,38.61
2023-01-06T12:12:40.813Z,39.38
2023-01-06T12:17:52.945Z,40.02
2023-01-06T12:22:59.079Z,40.48
2023-01-06T12:28:06.615Z,42.04
2023-01-06T12:33:40.084Z,42.73
2023-01-06T12:38:56.789Z,42.51
2023-01-06T12:44:18.131Z,43.57
2023-01-06T12:49:35.602Z,43.70
2023-01-06T12:54:38.571Z,44.26
2023-01-06T13:00:14.609Z,44.84
2023-01-06T13:05:26.843Z,45.52
2023-01-06T13:10:35.065Z,45.97
2023-01-06T13:15:41.086Z,46.00
2023-01-06T13:20:48.892Z,46.41
2023-01-06T13:26:09.714Z,46.84
2023-01-06T13:31:50.782Z,46.61
2023-01-06T13:37:22.459Z,47.94
2023-01-06T13:42:45.659Z,48.05
2023-01-06T13:47:50.892Z,48.97
2023-01-06T13:52:55.155Z,48.93
2023-01-06T13:57:59.268Z,48.87
2023-01-06T14:03:13.592Z,50.01
2023-01-06T14:08:19.870Z,50.72
2023-01-06T14:13:26.682Z,50.87
2023-01-06T14:18:34.857Z,51.49
2023-01-06T14:23:37.670Z,51.16
2023-01-06T14:28:40.012Z,51.74
2023-01-06T14:33:45.097Z,51.64
2023-01-06T14:38:51.884Z,51.49
2023-01-06T14:44:01.161Z,51.37
2023-01-06T14:49:06.423Z,51.97
2023-01-06T14:54:14.604Z,52.42
2023-01-06T14:59:16.851Z,52.83
2023-01-06T15:04:24.286Z,53.45
2023-01-06T15:09:26.843Z,53.95
2023-01-06T15:14:34.075Z,54.74
2023-01-06T15:19:36.980Z,55.24
2023-01-06T15:24:43.221Z,55.88
2023-01-06T15:29:57.312Z,56.20
2023-01-06T15:35:00.337Z,56.83
2023-01-06T15:40:05.059Z,57.31
2023-01-06T15:45:22.548Z,57.17
2023-01-06T15:55:51.659Z,57.87
2023-01-06T16:01:01.663Z,58.58
2023-01-06T16:06:12.994Z,58.46
2023-01-06T16:11:17.983Z,59.66
2023-01-06T16:16:20.450Z,60.74
2023-01-06T16:21:26.734Z,62.05
2023-01-06T16:26:33.255Z,70.08
2023-01-06T16:31:39.939Z,64.30
2023-01-06T16:36:42.619Z,76.38
2023-01-06T16:42:00.369Z,64.95
2023-01-06T16:47:02.975Z,70.22
2023-01-06T16:52:06.624Z,65.42
2023-01-06T16:57:11.888Z,65.34
2023-01-06T17:02:19.364Z,68.18
2023-01-06T17:07:22.180Z,69.32
2023-01-06T17:12:43.307Z,71.01
2023-01-06T17:17:45.633Z,71.13
2023-01-06T17:22:49.951Z,70.95
2023-01-06T17:27:56.097Z,70.46
2023-01-06T17:32:58.241Z,77.07
2023-01-06T17:38:08.260Z,77.59
2023-01-06T17:43:27.668Z,76.38
2023-01-06T17:48:30.204Z,79.77
2023-01-06T17:53:55.708Z,78.26
2023-01-06T17:59:05.596Z,81.43
2023-01-06T18:04:14.496Z,79.92
2023-01-06T18:09:23.699Z,78.67
2023-01-06T18:14:26.181Z,77.75
2023-01-06T18:19:37.998Z,75.66
2023-01-06T18:24:42.031Z,75.62
2023-01-06T18:29:44.930Z,75.13
2023-01-06T18:34:52.825Z,76.88
2023-01-06T18:40:02.744Z,77.06
2023-01-06T18:45:08.040Z,77.86
2023-01-06T18:50:26.072Z,79.22
2023-01-06T18:55:57.934Z,80.85
2023-01-06T19:01:03.067Z,81.99
2023-01-06T19:06:11.465Z,84.63
2023-01-06T19:11:20.131Z,85.93
2023-01-06T19:16:47.466Z,86.69
2023-01-06T19:21:50.944Z,87.36
2023-01-06T19:26:54.568Z,90.36
2023-01-06T19:32:00.074Z,87.68
2023-01-06T19:37:02.280Z,91.54
2023-01-06T19:42:27.389Z,91.63
2023-01-06T19:47:36.178Z,92.28
2023-01-06T19:52:40.692Z,91.85
2023-01-06T19:57:48.309Z,90.91
2023-01-06T20:02:57.139Z,92.70
2023-01-06T20:07:59.565Z,93.59
2023-01-06T20:13:01.683Z,93.57
2023-01-06T20:18:03.754Z,96.09
2023-01-06T20:23:07.222Z,98.23
2023-01-06T20:28:09.504Z,97.03
2023-01-06T20:33:14.459Z,100.00
2023-01-06T20:38:16.669Z,100.00
2023-01-06T20:43:22.300Z,100.00
2023-01-06T20:48:24.631Z,100.00
2023-01-06T20:53:32.044Z,100.00
2023-01-06T20:58:34.332Z,100.00
2023-01-06T21:03:39.717Z,100.00
2023-01-06T21:08:42.139Z,100.00
2023-01-06T21:13:44.812Z,100.00
2023-01-06T21:18:47.885Z,100.00
2023-01-06T21:23:49.985Z,100.00
2023-01-06T21:28:52.361Z,100.00
2023-01-06T21:33:59.552Z,100.00
2023-01-06T21:39:01.748Z,100.00
2023-01-06T21:44:04.161Z,100.00
2023-01-06T21:49:07.577Z,100.00
2023-01-06T21:54:19.166Z,100.00
2023-01-06T21:59:21.332Z,100.00
2023-01-06T22:04:23.903Z,100.00
2023-01-06T22:09:28.328Z,100.00
2023-01-06T22:14:31.902Z,100.00
2023-01-06T22:19:34.828Z,100.00
2023-01-06T22:24:37.017Z,100.00
2023-01-06T22:29:39.193Z,100.00
2023-01-06T22:34:44.840Z,100.00
2023-01-06T22:39:47.106Z,100.00
2023-01-06T22:44:50.774Z,100.00
2023-01-06T22:49:52.917Z,100.00
2023-01-06T22:54:55.359Z,100.00
2023-01-06T22:59:58.727Z,100.00
2023-01-06T23:05:00.824Z,100.00
2023-01-06T23:10:03.125Z,100.00
2023-01-06T23:15:06.709Z,100.00
2023-01-06T23:20:09.342Z,100.00
2023-01-06T23:25:11.943Z,100.00
2023-01-06T23:30:14.448Z,100.00
2023-01-06T23:35:16.745Z,100.00
2023-01-06T23:40:19.029Z,100.00
2023-01-06T23:45:21.328Z,100.00
2023-01-06T23:50:23.453Z,100.00
2023-01-06T23:55:25.832Z,100.00
